aviador You're here:

KEHR Decoded Metar

HENDERSON CITY in KY, USA
Report Time2017-04-25 19:56:00
UTC Time2017-04-25 20:14:41
Flight Rules vfr VFR
Wind150° at 07 Gusting to 17 kt
W.Decomp.*RWY 09: 3.4 kt HW 6.1 kt RCW
W.Rank150° ranks 15
Current wind is above 150° avg. (6.3)
Visibility9999 m
Phenomena:N/A
Clouds:N/A
Expected CloudBase > 5,200 ft AGL from Temp-Dew spread
CeilingNone
Temp26°C (ISA +12)
Dew Point13°C (45% RH)
AAT24.5°C
QNH1005 hPa
Density Alt2,215 ft
Elevation384 ft
Report Wrong Elevation
Raw Report
METAR KEHR 251956Z AUTO 15007G17KT 10SM CLR 26/13 A2968 RMK AO2 SLP058
T02560133=

Extra information for KEHR:More info

Metar Taf Metar & Taf Last 4 Metars F.Rules Stats Wind Profile Meteogram Temp Stats Airport Information Weather charts Add Link Nearby VenuesMetar ALERT Operation Metar Decoded Social comments

AIRNAV info for KEHR